sensor_id;sensor_type;location;lat;lon;timestamp;P1;durP1;ratioP1;P2;durP2;ratioP2
69401;SDS011;56589;51.992;5.924;2022-12-05T00:01:15;45.80;;;21.63;;
69401;SDS011;56589;51.992;5.924;2022-12-05T00:03:46;43.35;;;22.60;;
69401;SDS011;56589;51.992;5.924;2022-12-05T00:06:15;44.70;;;22.80;;
69401;SDS011;56589;51.992;5.924;2022-12-05T00:08:41;50.03;;;24.20;;
69401;SDS011;56589;51.992;5.924;2022-12-05T00:11:11;46.45;;;23.70;;
69401;SDS011;56589;51.992;5.924;2022-12-05T00:13:41;45.45;;;23.02;;
69401;SDS011;56589;51.992;5.924;2022-12-05T00:16:08;48.35;;;22.80;;
69401;SDS011;56589;51.992;5.924;2022-12-05T00:18:36;49.33;;;22.02;;
69401;SDS011;56589;51.992;5.924;2022-12-05T00:21:03;42.35;;;21.38;;
69401;SDS011;56589;51.992;5.924;2022-12-05T00:23:30;50.08;;;24.63;;
69401;SDS011;56589;51.992;5.924;2022-12-05T00:25:56;44.03;;;19.25;;
69401;SDS011;56589;51.992;5.924;2022-12-05T00:28:27;48.20;;;23.95;;
69401;SDS011;56589;51.992;5.924;2022-12-05T00:30:55;51.97;;;23.65;;
69401;SDS011;56589;51.992;5.924;2022-12-05T00:33:22;46.22;;;22.92;;
69401;SDS011;56589;51.992;5.924;2022-12-05T00:35:47;48.53;;;23.60;;
69401;SDS011;56589;51.992;5.924;2022-12-05T00:38:13;50.55;;;24.33;;
69401;SDS011;56589;51.992;5.924;2022-12-05T00:40:41;46.70;;;23.55;;
69401;SDS011;56589;51.992;5.924;2022-12-05T00:43:07;42.92;;;21.98;;
69401;SDS011;56589;51.992;5.924;2022-12-05T00:45:33;46.78;;;23.95;;
69401;SDS011;56589;51.992;5.924;2022-12-05T00:48:01;50.30;;;22.27;;
69401;SDS011;56589;51.992;5.924;2022-12-05T00:50:27;50.45;;;23.13;;
69401;SDS011;56589;51.992;5.924;2022-12-05T00:52:53;48.13;;;23.88;;
69401;SDS011;56589;51.992;5.924;2022-12-05T00:55:18;47.72;;;23.02;;
69401;SDS011;56589;51.992;5.924;2022-12-05T00:57:44;44.53;;;22.52;;
69401;SDS011;56589;51.992;5.924;2022-12-05T01:00:11;47.53;;;22.77;;
69401;SDS011;56589;51.992;5.924;2022-12-05T01:02:37;47.10;;;22.27;;
69401;SDS011;56589;51.992;5.924;2022-12-05T01:05:06;47.25;;;23.10;;
69401;SDS011;56589;51.992;5.924;2022-12-05T01:07:32;47.25;;;23.65;;
69401;SDS011;56589;51.992;5.924;2022-12-05T01:09:58;48.10;;;23.92;;
69401;SDS011;56589;51.992;5.924;2022-12-05T01:12:24;51.78;;;22.95;;
69401;SDS011;56589;51.992;5.924;2022-12-05T01:14:50;50.35;;;23.08;;
69401;SDS011;56589;51.992;5.924;2022-12-05T01:17:15;50.40;;;23.08;;
69401;SDS011;56589;51.992;5.924;2022-12-05T01:19:42;43.53;;;20.48;;
69401;SDS011;56589;51.992;5.924;2022-12-05T01:22:10;44.92;;;21.23;;
69401;SDS011;56589;51.992;5.924;2022-12-05T01:24:36;47.78;;;22.13;;
69401;SDS011;56589;51.992;5.924;2022-12-05T01:27:02;53.38;;;23.95;;
69401;SDS011;56589;51.992;5.924;2022-12-05T01:29:28;47.92;;;22.38;;
69401;SDS011;56589;51.992;5.924;2022-12-05T01:31:53;43.20;;;20.58;;
69401;SDS011;56589;51.992;5.924;2022-12-05T01:34:19;51.70;;;22.25;;
69401;SDS011;56589;51.992;5.924;2022-12-05T01:36:46;45.88;;;23.10;;
69401;SDS011;56589;51.992;5.924;2022-12-05T01:39:15;46.03;;;22.58;;
69401;SDS011;56589;51.992;5.924;2022-12-05T01:41:42;52.15;;;23.27;;
69401;SDS011;56589;51.992;5.924;2022-12-05T01:47:27;46.60;;;21.65;;
69401;SDS011;56589;51.992;5.924;2022-12-05T01:49:56;45.33;;;20.85;;
69401;SDS011;56589;51.992;5.924;2022-12-05T01:52:25;44.42;;;22.05;;
69401;SDS011;56589;51.992;5.924;2022-12-05T01:54:58;45.40;;;21.02;;
69401;SDS011;56589;51.992;5.924;2022-12-05T01:57:30;50.80;;;23.40;;
69401;SDS011;56589;51.992;5.924;2022-12-05T01:59:57;46.05;;;22.60;;
69401;SDS011;56589;51.992;5.924;2022-12-05T02:02:28;42.22;;;20.15;;
69401;SDS011;56589;51.992;5.924;2022-12-05T02:04:57;45.75;;;22.15;;
69401;SDS011;56589;51.992;5.924;2022-12-05T02:07:29;43.05;;;21.52;;
69401;SDS011;56589;51.992;5.924;2022-12-05T02:09:59;41.42;;;20.50;;
69401;SDS011;56589;51.992;5.924;2022-12-05T02:12:25;42.97;;;21.55;;
69401;SDS011;56589;51.992;5.924;2022-12-05T02:14:55;44.58;;;20.52;;
69401;SDS011;56589;51.992;5.924;2022-12-05T02:17:41;41.58;;;20.38;;
69401;SDS011;56589;51.992;5.924;2022-12-05T02:20:25;42.50;;;21.85;;
69401;SDS011;56589;51.992;5.924;2022-12-05T02:23:20;40.05;;;19.50;;
69401;SDS011;56589;51.992;5.924;2022-12-05T02:26:11;43.45;;;20.63;;
69401;SDS011;56589;51.992;5.924;2022-12-05T02:32:18;41.75;;;21.50;;
69401;SDS011;56589;51.992;5.924;2022-12-05T02:35:02;38.92;;;19.20;;
69401;SDS011;56589;51.992;5.924;2022-12-05T02:37:43;44.08;;;20.40;;
69401;SDS011;56589;51.992;5.924;2022-12-05T02:40:23;41.25;;;19.52;;
69401;SDS011;56589;51.992;5.924;2022-12-05T02:42:59;43.00;;;20.15;;
69401;SDS011;56589;51.992;5.924;2022-12-05T02:45:35;45.15;;;20.73;;
69401;SDS011;56589;51.992;5.924;2022-12-05T02:48:08;42.53;;;19.52;;
69401;SDS011;56589;51.992;5.924;2022-12-05T02:50:39;41.67;;;20.10;;
69401;SDS011;56589;51.992;5.924;2022-12-05T02:53:08;40.35;;;19.48;;
69401;SDS011;56589;51.992;5.924;2022-12-05T02:55:39;40.97;;;19.02;;
69401;SDS011;56589;51.992;5.924;2022-12-05T02:58:10;41.15;;;20.70;;
69401;SDS011;56589;51.992;5.924;2022-12-05T03:00:43;41.22;;;19.58;;
69401;SDS011;56589;51.992;5.924;2022-12-05T03:03:16;41.55;;;20.95;;
69401;SDS011;56589;51.992;5.924;2022-12-05T03:05:46;40.30;;;18.90;;
69401;SDS011;56589;51.992;5.924;2022-12-05T03:08:21;40.65;;;19.48;;
69401;SDS011;56589;51.992;5.924;2022-12-05T03:10:53;41.58;;;20.63;;
69401;SDS011;56589;51.992;5.924;2022-12-05T03:13:23;43.20;;;20.42;;
69401;SDS011;56589;51.992;5.924;2022-12-05T03:15:58;40.58;;;19.98;;
69401;SDS011;56589;51.992;5.924;2022-12-05T03:21:07;37.95;;;19.70;;
69401;SDS011;56589;51.992;5.924;2022-12-05T03:23:47;40.85;;;20.40;;
69401;SDS011;56589;51.992;5.924;2022-12-05T03:26:23;39.67;;;19.23;;
69401;SDS011;56589;51.992;5.924;2022-12-05T03:29:03;41.33;;;19.80;;
69401;SDS011;56589;51.992;5.924;2022-12-05T03:31:59;35.15;;;18.13;;
69401;SDS011;56589;51.992;5.924;2022-12-05T03:34:46;39.97;;;18.23;;
69401;SDS011;56589;51.992;5.924;2022-12-05T03:37:24;36.70;;;17.90;;
69401;SDS011;56589;51.992;5.924;2022-12-05T03:40:02;39.35;;;18.73;;
69401;SDS011;56589;51.992;5.924;2022-12-05T03:42:35;39.78;;;18.90;;
69401;SDS011;56589;51.992;5.924;2022-12-05T03:45:14;43.13;;;19.02;;
69401;SDS011;56589;51.992;5.924;2022-12-05T03:47:47;38.47;;;19.88;;
69401;SDS011;56589;51.992;5.924;2022-12-05T03:50:25;40.25;;;19.15;;
69401;SDS011;56589;51.992;5.924;2022-12-05T03:52:54;38.25;;;18.83;;
69401;SDS011;56589;51.992;5.924;2022-12-05T03:55:28;41.60;;;19.67;;
69401;SDS011;56589;51.992;5.924;2022-12-05T03:58:00;38.08;;;20.35;;
69401;SDS011;56589;51.992;5.924;2022-12-05T04:00:33;41.28;;;19.25;;
69401;SDS011;56589;51.992;5.924;2022-12-05T04:03:05;42.38;;;20.70;;
69401;SDS011;56589;51.992;5.924;2022-12-05T04:05:41;41.17;;;19.20;;
69401;SDS011;56589;51.992;5.924;2022-12-05T04:08:12;39.58;;;20.75;;
69401;SDS011;56589;51.992;5.924;2022-12-05T04:13:16;38.45;;;19.48;;
69401;SDS011;56589;51.992;5.924;2022-12-05T04:15:47;41.60;;;19.75;;
69401;SDS011;56589;51.992;5.924;2022-12-05T04:18:21;38.72;;;19.02;;
69401;SDS011;56589;51.992;5.924;2022-12-05T04:20:54;39.08;;;19.25;;
69401;SDS011;56589;51.992;5.924;2022-12-05T04:23:22;42.13;;;20.73;;
69401;SDS011;56589;51.992;5.924;2022-12-05T04:26:03;46.63;;;20.83;;
69401;SDS011;56589;51.992;5.924;2022-12-05T04:28:44;39.42;;;18.42;;
69401;SDS011;56589;51.992;5.924;2022-12-05T04:31:22;35.97;;;16.73;;
69401;SDS011;56589;51.992;5.924;2022-12-05T04:33:57;38.53;;;19.00;;
69401;SDS011;56589;51.992;5.924;2022-12-05T04:39:05;32.90;;;17.98;;
69401;SDS011;56589;51.992;5.924;2022-12-05T04:44:09;33.83;;;17.45;;
69401;SDS011;56589;51.992;5.924;2022-12-05T04:46:42;32.23;;;15.70;;
69401;SDS011;56589;51.992;5.924;2022-12-05T04:49:12;34.30;;;18.60;;
69401;SDS011;56589;51.992;5.924;2022-12-05T04:51:46;38.25;;;17.92;;
69401;SDS011;56589;51.992;5.924;2022-12-05T04:54:19;36.15;;;18.95;;
69401;SDS011;56589;51.992;5.924;2022-12-05T04:56:53;32.88;;;16.80;;
69401;SDS011;56589;51.992;5.924;2022-12-05T04:59:37;32.50;;;16.20;;
69401;SDS011;56589;51.992;5.924;2022-12-05T05:02:04;31.10;;;17.55;;
69401;SDS011;56589;51.992;5.924;2022-12-05T05:04:34;31.20;;;17.05;;
69401;SDS011;56589;51.992;5.924;2022-12-05T05:07:09;33.85;;;17.48;;
69401;SDS011;56589;51.992;5.924;2022-12-05T05:09:37;34.33;;;18.98;;
69401;SDS011;56589;51.992;5.924;2022-12-05T05:12:04;35.97;;;18.63;;
69401;SDS011;56589;51.992;5.924;2022-12-05T05:14:31;35.55;;;18.17;;
69401;SDS011;56589;51.992;5.924;2022-12-05T05:16:57;33.35;;;17.75;;
69401;SDS011;56589;51.992;5.924;2022-12-05T05:19:23;35.63;;;17.05;;
69401;SDS011;56589;51.992;5.924;2022-12-05T05:21:49;32.47;;;18.60;;
69401;SDS011;56589;51.992;5.924;2022-12-05T05:24:19;34.47;;;17.90;;
69401;SDS011;56589;51.992;5.924;2022-12-05T05:26:45;29.88;;;16.98;;
69401;SDS011;56589;51.992;5.924;2022-12-05T05:29:11;33.80;;;17.25;;
69401;SDS011;56589;51.992;5.924;2022-12-05T05:31:39;35.53;;;17.65;;
69401;SDS011;56589;51.992;5.924;2022-12-05T05:34:06;35.42;;;17.23;;
69401;SDS011;56589;51.992;5.924;2022-12-05T05:36:35;31.17;;;17.85;;
69401;SDS011;56589;51.992;5.924;2022-12-05T05:39:02;34.22;;;17.35;;
69401;SDS011;56589;51.992;5.924;2022-12-05T05:41:33;31.10;;;16.13;;
69401;SDS011;56589;51.992;5.924;2022-12-05T05:44:00;34.70;;;17.98;;
69401;SDS011;56589;51.992;5.924;2022-12-05T05:46:28;29.55;;;16.70;;
69401;SDS011;56589;51.992;5.924;2022-12-05T05:48:56;31.10;;;17.63;;
69401;SDS011;56589;51.992;5.924;2022-12-05T05:51:23;32.53;;;17.83;;
69401;SDS011;56589;51.992;5.924;2022-12-05T05:53:50;32.88;;;17.33;;
69401;SDS011;56589;51.992;5.924;2022-12-05T05:56:17;32.25;;;16.23;;
69401;SDS011;56589;51.992;5.924;2022-12-05T05:58:47;31.73;;;16.83;;
69401;SDS011;56589;51.992;5.924;2022-12-05T06:01:18;35.13;;;17.88;;
69401;SDS011;56589;51.992;5.924;2022-12-05T06:03:44;30.20;;;17.00;;
69401;SDS011;56589;51.992;5.924;2022-12-05T06:06:11;29.65;;;16.38;;
69401;SDS011;56589;51.992;5.924;2022-12-05T06:08:39;30.70;;;17.08;;
69401;SDS011;56589;51.992;5.924;2022-12-05T06:11:08;29.58;;;17.38;;
69401;SDS011;56589;51.992;5.924;2022-12-05T06:13:37;29.52;;;16.92;;
69401;SDS011;56589;51.992;5.924;2022-12-05T06:16:07;30.52;;;16.63;;
69401;SDS011;56589;51.992;5.924;2022-12-05T06:18:36;32.05;;;16.27;;
69401;SDS011;56589;51.992;5.924;2022-12-05T06:21:02;28.67;;;17.27;;
69401;SDS011;56589;51.992;5.924;2022-12-05T06:23:29;27.85;;;16.50;;
69401;SDS011;56589;51.992;5.924;2022-12-05T06:25:55;34.95;;;16.83;;
69401;SDS011;56589;51.992;5.924;2022-12-05T06:28:22;32.70;;;17.30;;
69401;SDS011;56589;51.992;5.924;2022-12-05T06:30:49;30.38;;;17.33;;
69401;SDS011;56589;51.992;5.924;2022-12-05T06:33:18;33.35;;;16.95;;
69401;SDS011;56589;51.992;5.924;2022-12-05T06:35:45;31.98;;;17.65;;
69401;SDS011;56589;51.992;5.924;2022-12-05T06:38:11;29.15;;;15.75;;
69401;SDS011;56589;51.992;5.924;2022-12-05T06:40:38;31.48;;;17.30;;
69401;SDS011;56589;51.992;5.924;2022-12-05T06:43:05;30.95;;;15.75;;
69401;SDS011;56589;51.992;5.924;2022-12-05T06:45:31;30.58;;;16.60;;
69401;SDS011;56589;51.992;5.924;2022-12-05T06:47:57;28.85;;;16.23;;
69401;SDS011;56589;51.992;5.924;2022-12-05T06:50:25;27.48;;;15.65;;
69401;SDS011;56589;51.992;5.924;2022-12-05T06:52:51;29.50;;;16.35;;
69401;SDS011;56589;51.992;5.924;2022-12-05T06:55:17;30.00;;;16.85;;
69401;SDS011;56589;51.992;5.924;2022-12-05T06:57:43;29.55;;;16.10;;
69401;SDS011;56589;51.992;5.924;2022-12-05T07:00:09;28.52;;;15.90;;
69401;SDS011;56589;51.992;5.924;2022-12-05T07:02:39;29.90;;;16.27;;
69401;SDS011;56589;51.992;5.924;2022-12-05T07:05:05;28.83;;;16.85;;
69401;SDS011;56589;51.992;5.924;2022-12-05T07:07:34;28.60;;;16.15;;
69401;SDS011;56589;51.992;5.924;2022-12-05T07:10:00;29.08;;;16.65;;
69401;SDS011;56589;51.992;5.924;2022-12-05T07:12:26;28.60;;;16.17;;
69401;SDS011;56589;51.992;5.924;2022-12-05T07:14:52;25.95;;;15.40;;
69401;SDS011;56589;51.992;5.924;2022-12-05T07:17:18;30.13;;;16.30;;
69401;SDS011;56589;51.992;5.924;2022-12-05T07:19:48;26.10;;;15.50;;
69401;SDS011;56589;51.992;5.924;2022-12-05T07:22:16;26.65;;;15.80;;
69401;SDS011;56589;51.992;5.924;2022-12-05T07:24:45;29.00;;;15.70;;
69401;SDS011;56589;51.992;5.924;2022-12-05T07:27:12;28.90;;;16.13;;
69401;SDS011;56589;51.992;5.924;2022-12-05T07:29:39;25.50;;;15.90;;
69401;SDS011;56589;51.992;5.924;2022-12-05T07:32:05;27.85;;;15.32;;
69401;SDS011;56589;51.992;5.924;2022-12-05T07:34:32;27.08;;;15.07;;
69401;SDS011;56589;51.992;5.924;2022-12-05T07:36:59;26.63;;;15.90;;
69401;SDS011;56589;51.992;5.924;2022-12-05T07:39:25;29.90;;;16.35;;
69401;SDS011;56589;51.992;5.924;2022-12-05T07:41:54;29.25;;;15.13;;
69401;SDS011;56589;51.992;5.924;2022-12-05T07:44:20;23.55;;;14.60;;
69401;SDS011;56589;51.992;5.924;2022-12-05T07:46:46;25.85;;;15.20;;
69401;SDS011;56589;51.992;5.924;2022-12-05T07:49:11;26.52;;;14.40;;
69401;SDS011;56589;51.992;5.924;2022-12-05T07:51:39;24.55;;;14.38;;
69401;SDS011;56589;51.992;5.924;2022-12-05T07:54:05;24.27;;;14.00;;
69401;SDS011;56589;51.992;5.924;2022-12-05T07:56:31;23.17;;;13.73;;
69401;SDS011;56589;51.992;5.924;2022-12-05T07:58:59;24.75;;;14.02;;
69401;SDS011;56589;51.992;5.924;2022-12-05T08:01:27;24.38;;;14.15;;
69401;SDS011;56589;51.992;5.924;2022-12-05T08:03:54;25.65;;;13.50;;
69401;SDS011;56589;51.992;5.924;2022-12-05T08:06:23;23.50;;;13.60;;
69401;SDS011;56589;51.992;5.924;2022-12-05T08:08:52;27.45;;;15.40;;
69401;SDS011;56589;51.992;5.924;2022-12-05T08:11:21;25.63;;;15.32;;
69401;SDS011;56589;51.992;5.924;2022-12-05T08:13:49;26.48;;;15.35;;
69401;SDS011;56589;51.992;5.924;2022-12-05T08:16:19;25.98;;;15.20;;
69401;SDS011;56589;51.992;5.924;2022-12-05T08:18:47;26.27;;;14.80;;
69401;SDS011;56589;51.992;5.924;2022-12-05T08:21:14;30.65;;;16.60;;
69401;SDS011;56589;51.992;5.924;2022-12-05T08:23:42;28.90;;;14.90;;
69401;SDS011;56589;51.992;5.924;2022-12-05T08:26:10;29.95;;;16.30;;
69401;SDS011;56589;51.992;5.924;2022-12-05T08:28:38;29.77;;;16.13;;
69401;SDS011;56589;51.992;5.924;2022-12-05T08:31:05;27.75;;;15.23;;
69401;SDS011;56589;51.992;5.924;2022-12-05T08:33:36;30.20;;;16.20;;
69401;SDS011;56589;51.992;5.924;2022-12-05T08:36:02;31.73;;;16.50;;
69401;SDS011;56589;51.992;5.924;2022-12-05T08:38:31;32.20;;;16.65;;
69401;SDS011;56589;51.992;5.924;2022-12-05T08:40:59;31.67;;;16.83;;
69401;SDS011;56589;51.992;5.924;2022-12-05T08:43:25;34.03;;;17.58;;
69401;SDS011;56589;51.992;5.924;2022-12-05T08:45:52;34.75;;;17.70;;
69401;SDS011;56589;51.992;5.924;2022-12-05T08:48:18;29.67;;;16.65;;
69401;SDS011;56589;51.992;5.924;2022-12-05T08:50:47;28.63;;;16.92;;
69401;SDS011;56589;51.992;5.924;2022-12-05T08:53:13;36.97;;;18.13;;
69401;SDS011;56589;51.992;5.924;2022-12-05T08:55:39;32.90;;;16.52;;
69401;SDS011;56589;51.992;5.924;2022-12-05T08:58:05;35.15;;;17.88;;
69401;SDS011;56589;51.992;5.924;2022-12-05T09:00:31;31.35;;;17.95;;
69401;SDS011;56589;51.992;5.924;2022-12-05T09:02:57;34.45;;;17.70;;
69401;SDS011;56589;51.992;5.924;2022-12-05T09:05:23;37.33;;;18.48;;
69401;SDS011;56589;51.992;5.924;2022-12-05T09:07:52;36.95;;;17.67;;
69401;SDS011;56589;51.992;5.924;2022-12-05T09:10:18;39.08;;;19.48;;
69401;SDS011;56589;51.992;5.924;2022-12-05T09:12:44;34.38;;;17.33;;
69401;SDS011;56589;51.992;5.924;2022-12-05T09:15:10;31.60;;;16.95;;
69401;SDS011;56589;51.992;5.924;2022-12-05T09:17:36;38.72;;;18.95;;
69401;SDS011;56589;51.992;5.924;2022-12-05T09:20:04;35.10;;;17.20;;
69401;SDS011;56589;51.992;5.924;2022-12-05T09:22:32;38.22;;;19.50;;
69401;SDS011;56589;51.992;5.924;2022-12-05T09:25:00;40.53;;;18.73;;
69401;SDS011;56589;51.992;5.924;2022-12-05T09:27:26;43.55;;;19.73;;
69401;SDS011;56589;51.992;5.924;2022-12-05T09:29:53;38.20;;;18.70;;
69401;SDS011;56589;51.992;5.924;2022-12-05T09:32:18;36.53;;;18.90;;
69401;SDS011;56589;51.992;5.924;2022-12-05T09:34:44;38.55;;;18.70;;
69401;SDS011;56589;51.992;5.924;2022-12-05T09:37:10;35.80;;;19.05;;
69401;SDS011;56589;51.992;5.924;2022-12-05T09:39:37;38.45;;;18.42;;
69401;SDS011;56589;51.992;5.924;2022-12-05T09:42:20;40.65;;;18.85;;
69401;SDS011;56589;51.992;5.924;2022-12-05T09:45:03;46.05;;;20.35;;
69401;SDS011;56589;51.992;5.924;2022-12-05T09:47:41;37.53;;;18.20;;
69401;SDS011;56589;51.992;5.924;2022-12-05T09:50:18;42.70;;;18.48;;
69401;SDS011;56589;51.992;5.924;2022-12-05T09:52:52;37.78;;;16.95;;
69401;SDS011;56589;51.992;5.924;2022-12-05T09:55:35;33.17;;;17.42;;
69401;SDS011;56589;51.992;5.924;2022-12-05T09:58:15;36.75;;;17.58;;
69401;SDS011;56589;51.992;5.924;2022-12-05T10:00:51;41.88;;;18.65;;
69401;SDS011;56589;51.992;5.924;2022-12-05T10:03:25;38.15;;;17.52;;
69401;SDS011;56589;51.992;5.924;2022-12-05T10:06:06;40.20;;;16.92;;
69401;SDS011;56589;51.992;5.924;2022-12-05T10:08:48;40.80;;;17.92;;
69401;SDS011;56589;51.992;5.924;2022-12-05T10:11:40;40.25;;;17.48;;
69401;SDS011;56589;51.992;5.924;2022-12-05T10:14:19;36.20;;;17.27;;
69401;SDS011;56589;51.992;5.924;2022-12-05T10:17:03;40.15;;;18.45;;
69401;SDS011;56589;51.992;5.924;2022-12-05T10:19:40;42.65;;;18.60;;
69401;SDS011;56589;51.992;5.924;2022-12-05T10:22:12;45.38;;;18.55;;
69401;SDS011;56589;51.992;5.924;2022-12-05T10:24:47;35.47;;;18.70;;
69401;SDS011;56589;51.992;5.924;2022-12-05T10:27:19;42.03;;;18.95;;
69401;SDS011;56589;51.992;5.924;2022-12-05T10:29:58;40.78;;;17.63;;
69401;SDS011;56589;51.992;5.924;2022-12-05T10:32:30;45.28;;;17.95;;
69401;SDS011;56589;51.992;5.924;2022-12-05T10:35:13;37.55;;;18.20;;
69401;SDS011;56589;51.992;5.924;2022-12-05T10:37:44;39.17;;;17.42;;
69401;SDS011;56589;51.992;5.924;2022-12-05T10:40:14;33.20;;;16.42;;
69401;SDS011;56589;51.992;5.924;2022-12-05T10:42:41;33.33;;;17.88;;
69401;SDS011;56589;51.992;5.924;2022-12-05T10:45:15;36.20;;;16.92;;
69401;SDS011;56589;51.992;5.924;2022-12-05T10:47:44;40.95;;;17.02;;
69401;SDS011;56589;51.992;5.924;2022-12-05T10:53:01;35.80;;;17.02;;
69401;SDS011;56589;51.992;5.924;2022-12-05T10:55:30;33.42;;;16.27;;
69401;SDS011;56589;51.992;5.924;2022-12-05T10:58:08;36.53;;;16.65;;
69401;SDS011;56589;51.992;5.924;2022-12-05T11:00:39;31.05;;;15.40;;
69401;SDS011;56589;51.992;5.924;2022-12-05T11:03:14;31.45;;;15.68;;
69401;SDS011;56589;51.992;5.924;2022-12-05T11:05:58;35.30;;;16.83;;
69401;SDS011;56589;51.992;5.924;2022-12-05T11:08:27;33.13;;;15.73;;
69401;SDS011;56589;51.992;5.924;2022-12-05T11:11:02;36.20;;;16.48;;
69401;SDS011;56589;51.992;5.924;2022-12-05T11:13:31;32.83;;;17.13;;
69401;SDS011;56589;51.992;5.924;2022-12-05T11:16:01;30.80;;;16.98;;
69401;SDS011;56589;51.992;5.924;2022-12-05T11:18:31;36.78;;;17.48;;
69401;SDS011;56589;51.992;5.924;2022-12-05T11:21:09;33.05;;;17.92;;
69401;SDS011;56589;51.992;5.924;2022-12-05T11:23:38;37.72;;;18.30;;
69401;SDS011;56589;51.992;5.924;2022-12-05T11:26:11;37.05;;;17.02;;
69401;SDS011;56589;51.992;5.924;2022-12-05T11:28:43;33.67;;;16.33;;
69401;SDS011;56589;51.992;5.924;2022-12-05T11:31:25;31.25;;;17.55;;
69401;SDS011;56589;51.992;5.924;2022-12-05T11:34:00;30.60;;;17.08;;
69401;SDS011;56589;51.992;5.924;2022-12-05T11:36:38;26.88;;;14.32;;
69401;SDS011;56589;51.992;5.924;2022-12-05T11:39:08;30.15;;;14.65;;
69401;SDS011;56589;51.992;5.924;2022-12-05T11:41:40;30.08;;;15.15;;
69401;SDS011;56589;51.992;5.924;2022-12-05T11:44:27;29.05;;;15.07;;
69401;SDS011;56589;51.992;5.924;2022-12-05T11:47:26;27.75;;;14.85;;
69401;SDS011;56589;51.992;5.924;2022-12-05T11:50:15;25.42;;;13.40;;
69401;SDS011;56589;51.992;5.924;2022-12-05T11:53:00;24.83;;;13.93;;
69401;SDS011;56589;51.992;5.924;2022-12-05T11:56:04;24.98;;;12.98;;
69401;SDS011;56589;51.992;5.924;2022-12-05T11:58:51;24.40;;;13.05;;
69401;SDS011;56589;51.992;5.924;2022-12-05T12:01:35;24.75;;;12.63;;
69401;SDS011;56589;51.992;5.924;2022-12-05T12:04:29;25.30;;;13.88;;
69401;SDS011;56589;51.992;5.924;2022-12-05T12:07:14;23.15;;;12.60;;
69401;SDS011;56589;51.992;5.924;2022-12-05T12:10:02;22.65;;;12.95;;
69401;SDS011;56589;51.992;5.924;2022-12-05T12:12:47;24.40;;;13.02;;
69401;SDS011;56589;51.992;5.924;2022-12-05T12:15:36;25.77;;;13.18;;
69401;SDS011;56589;51.992;5.924;2022-12-05T12:18:18;23.75;;;13.52;;
69401;SDS011;56589;51.992;5.924;2022-12-05T12:21:17;25.17;;;14.10;;
69401;SDS011;56589;51.992;5.924;2022-12-05T12:24:01;22.20;;;13.73;;
69401;SDS011;56589;51.992;5.924;2022-12-05T12:26:46;20.85;;;12.73;;
69401;SDS011;56589;51.992;5.924;2022-12-05T12:29:32;19.35;;;10.98;;
69401;SDS011;56589;51.992;5.924;2022-12-05T12:32:17;20.70;;;12.93;;
69401;SDS011;56589;51.992;5.924;2022-12-05T12:35:02;19.83;;;12.40;;
69401;SDS011;56589;51.992;5.924;2022-12-05T12:37:56;27.08;;;12.20;;
69401;SDS011;56589;51.992;5.924;2022-12-05T12:40:48;19.90;;;11.70;;
69401;SDS011;56589;51.992;5.924;2022-12-05T12:43:22;18.02;;;11.55;;
69401;SDS011;56589;51.992;5.924;2022-12-05T12:46:21;15.85;;;10.38;;
69401;SDS011;56589;51.992;5.924;2022-12-05T12:49:10;17.63;;;11.10;;
69401;SDS011;56589;51.992;5.924;2022-12-05T12:51:55;19.38;;;10.60;;
69401;SDS011;56589;51.992;5.924;2022-12-05T12:57:13;16.50;;;10.85;;
69401;SDS011;56589;51.992;5.924;2022-12-05T12:59:53;16.35;;;10.88;;
69401;SDS011;56589;51.992;5.924;2022-12-05T13:02:36;17.70;;;10.57;;
69401;SDS011;56589;51.992;5.924;2022-12-05T13:05:15;13.55;;;9.05;;
69401;SDS011;56589;51.992;5.924;2022-12-05T13:08:00;12.60;;;8.45;;
69401;SDS011;56589;51.992;5.924;2022-12-05T13:10:36;14.65;;;8.60;;
69401;SDS011;56589;51.992;5.924;2022-12-05T13:13:08;16.05;;;9.43;;
69401;SDS011;56589;51.992;5.924;2022-12-05T13:15:40;13.75;;;9.55;;
69401;SDS011;56589;51.992;5.924;2022-12-05T13:18:13;13.20;;;9.00;;
69401;SDS011;56589;51.992;5.924;2022-12-05T13:20:43;13.00;;;8.82;;
69401;SDS011;56589;51.992;5.924;2022-12-05T13:23:15;14.48;;;8.88;;
69401;SDS011;56589;51.992;5.924;2022-12-05T13:25:47;11.07;;;7.75;;
69401;SDS011;56589;51.992;5.924;2022-12-05T13:28:24;10.98;;;7.93;;
69401;SDS011;56589;51.992;5.924;2022-12-05T13:30:54;10.73;;;7.07;;
69401;SDS011;56589;51.992;5.924;2022-12-05T13:33:22;9.60;;;6.45;;
69401;SDS011;56589;51.992;5.924;2022-12-05T13:35:53;9.23;;;5.68;;
69401;SDS011;56589;51.992;5.924;2022-12-05T13:38:27;9.65;;;5.60;;
69401;SDS011;56589;51.992;5.924;2022-12-05T13:41:00;8.82;;;5.55;;
69401;SDS011;56589;51.992;5.924;2022-12-05T13:43:27;7.45;;;4.95;;
69401;SDS011;56589;51.992;5.924;2022-12-05T13:45:57;6.57;;;4.28;;
69401;SDS011;56589;51.992;5.924;2022-12-05T13:48:31;6.38;;;3.80;;
69401;SDS011;56589;51.992;5.924;2022-12-05T13:51:02;5.70;;;3.80;;
69401;SDS011;56589;51.992;5.924;2022-12-05T13:53:34;4.53;;;2.90;;
69401;SDS011;56589;51.992;5.924;2022-12-05T13:56:21;3.75;;;1.98;;
69401;SDS011;56589;51.992;5.924;2022-12-05T13:59:09;3.35;;;2.05;;
69401;SDS011;56589;51.992;5.924;2022-12-05T14:01:42;5.13;;;2.28;;
69401;SDS011;56589;51.992;5.924;2022-12-05T14:07:09;4.00;;;1.90;;
69401;SDS011;56589;51.992;5.924;2022-12-05T14:09:48;3.15;;;1.90;;
69401;SDS011;56589;51.992;5.924;2022-12-05T14:15:30;2.70;;;1.90;;
69401;SDS011;56589;51.992;5.924;2022-12-05T14:18:00;2.33;;;1.80;;
69401;SDS011;56589;51.992;5.924;2022-12-05T14:20:43;2.60;;;2.00;;
69401;SDS011;56589;51.992;5.924;2022-12-05T14:23:36;3.47;;;2.08;;
69401;SDS011;56589;51.992;5.924;2022-12-05T14:26:21;4.13;;;2.03;;
69401;SDS011;56589;51.992;5.924;2022-12-05T14:29:16;2.72;;;1.75;;
69401;SDS011;56589;51.992;5.924;2022-12-05T14:32:03;3.40;;;2.03;;
69401;SDS011;56589;51.992;5.924;2022-12-05T14:34:48;3.28;;;1.83;;
69401;SDS011;56589;51.992;5.924;2022-12-05T14:37:23;2.35;;;1.58;;
69401;SDS011;56589;51.992;5.924;2022-12-05T14:39:56;4.15;;;2.05;;
69401;SDS011;56589;51.992;5.924;2022-12-05T14:42:25;3.33;;;1.90;;
69401;SDS011;56589;51.992;5.924;2022-12-05T14:47:56;2.53;;;1.65;;
69401;SDS011;56589;51.992;5.924;2022-12-05T14:50:34;3.42;;;2.08;;
69401;SDS011;56589;51.992;5.924;2022-12-05T14:55:55;3.28;;;2.10;;
69401;SDS011;56589;51.992;5.924;2022-12-05T14:58:38;3.05;;;1.70;;
69401;SDS011;56589;51.992;5.924;2022-12-05T15:01:16;3.08;;;1.73;;
69401;SDS011;56589;51.992;5.924;2022-12-05T15:03:56;2.75;;;1.73;;
69401;SDS011;56589;51.992;5.924;2022-12-05T15:06:31;2.85;;;1.90;;
69401;SDS011;56589;51.992;5.924;2022-12-05T15:09:03;3.67;;;2.20;;
69401;SDS011;56589;51.992;5.924;2022-12-05T15:11:32;2.38;;;1.63;;
69401;SDS011;56589;51.992;5.924;2022-12-05T15:14:03;2.88;;;1.67;;
69401;SDS011;56589;51.992;5.924;2022-12-05T15:16:44;2.75;;;1.80;;
69401;SDS011;56589;51.992;5.924;2022-12-05T15:19:16;3.95;;;1.92;;
69401;SDS011;56589;51.992;5.924;2022-12-05T15:21:51;3.03;;;1.70;;
69401;SDS011;56589;51.992;5.924;2022-12-05T15:24:21;3.53;;;1.90;;
69401;SDS011;56589;51.992;5.924;2022-12-05T15:26:48;2.97;;;1.80;;
69401;SDS011;56589;51.992;5.924;2022-12-05T15:29:22;4.00;;;1.95;;
69401;SDS011;56589;51.992;5.924;2022-12-05T15:34:23;2.88;;;2.17;;